Time;durP1;ratioP1;P1;durP2;ratioP2;P2;SDS_P1;SDS_P2;PMS_P1;PMS_P2;Temp;Humidity;BMP_temperature;BMP_pressure;BME280_temperature;BME280_humidity;BME280_pressure;Samples;Min_cycle;Max_cycle;Signal;HPM_P1;HPM_P2
2022/06/23 00:02:19;;;;;;;2.25;1.40;;;;;;;16.80;77.72;100456.75;5201431;28;20045;-74
2022/06/23 00:04:53;;;;;;;3.47;1.65;;;;;;;16.84;76.05;100455.59;5200535;28;20045;-73
2022/06/23 00:07:35;;;;;;;3.87;1.60;;;;;;;16.89;77.44;100456.16;5198055;28;20021;-74
2022/06/23 00:10:14;;;;;;;4.55;1.33;;;;;;;16.79;77.13;100463.81;5200967;28;20026;-74
2022/06/23 00:12:45;;;;;;;4.30;1.40;;;;;;;16.77;77.94;100462.22;5201766;28;20511;-74
2022/06/23 00:15:19;;;;;;;5.70;1.58;;;;;;;16.66;79.54;100464.66;5201732;28;20033;-74
2022/06/23 00:17:57;;;;;;;2.92;1.70;;;;;;;16.75;78.95;100463.25;5201398;28;20033;-74
2022/06/23 00:20:38;;;;;;;5.25;1.70;;;;;;;16.87;77.32;100455.41;5201217;28;20126;-74
2022/06/23 00:23:25;;;;;;;6.10;1.80;;;;;;;17.01;76.91;100450.09;5201882;28;20037;-74
2022/06/23 00:26:07;;;;;;;4.05;1.30;;;;;;;16.88;77.75;100459.72;5199317;28;20033;-74
2022/06/23 00:28:45;;;;;;;4.10;1.70;;;;;;;16.59;79.08;100459.88;5193336;28;20032;-74
2022/06/23 00:31:52;;;;;;;2.83;1.70;;;;;;;16.66;78.10;100458.53;5203372;28;20048;-72
2022/06/23 00:34:42;;;;;;;4.35;1.38;;;;;;;16.60;79.55;100462.44;5199902;28;20033;-74
2022/06/23 00:37:18;;;;;;;5.80;1.90;;;;;;;16.61;78.12;100472.03;5197161;28;20035;-73
2022/06/23 00:39:53;;;;;;;6.22;1.83;;;;;;;16.47;79.30;100469.38;5201433;28;20064;-74
2022/06/23 00:42:23;;;;;;;2.72;1.70;;;;;;;16.49;80.25;100475.41;5201731;28;20033;-74
2022/06/23 00:45:00;;;;;;;2.78;1.42;;;;;;;16.39;80.61;100476.06;5201799;28;20025;-74
2022/06/23 00:47:39;;;;;;;2.95;1.58;;;;;;;16.25;80.48;100474.22;5199916;28;20590;-74
2022/06/23 00:50:31;;;;;;;3.78;1.77;;;;;;;16.21;81.56;100471.88;5201152;28;20033;-74
2022/06/23 00:53:20;;;;;;;4.60;1.77;;;;;;;16.19;82.17;100479.03;5200215;28;20037;-74
2022/06/23 00:56:28;;;;;;;6.30;1.77;;;;;;;16.42;82.14;100474.06;5198692;28;20546;-74
2022/06/23 00:59:11;;;;;;;5.05;2.13;;;;;;;16.62;81.73;100467.59;5198422;28;20084;-74
2022/06/23 01:01:47;;;;;;;5.93;2.30;;;;;;;16.58;81.95;100466.91;5196950;28;20511;-74
2022/06/23 01:04:35;;;;;;;3.70;1.80;;;;;;;16.64;81.29;100474.47;5200772;28;20117;-74
2022/06/23 01:07:37;;;;;;;6.07;2.25;;;;;;;16.31;81.44;100480.91;5200514;28;20300;-74
2022/06/23 01:10:17;;;;;;;7.15;1.70;;;;;;;16.04;83.06;100491.31;5200113;28;20041;-74
2022/06/23 01:12:49;;;;;;;5.78;2.00;;;;;;;15.55;86.47;100503.00;5197672;28;20100;-74
2022/06/23 01:15:28;;;;;;;8.07;2.17;;;;;;;15.36;87.32;100504.16;5200883;28;20056;-74
2022/06/23 01:18:17;;;;;;;5.43;2.00;;;;;;;15.01;89.47;100500.78;5200551;28;20033;-74
2022/06/23 01:20:51;;;;;;;5.70;2.10;;;;;;;14.96;90.44;100502.84;5200412;28;20029;-74
2022/06/23 01:23:40;;;;;;;6.30;2.10;;;;;;;15.08;90.54;100509.22;5201200;28;20368;-74
2022/06/23 01:26:29;;;;;;;5.15;2.03;;;;;;;15.49;87.38;100518.31;5200318;28;20144;-72
2022/06/23 01:29:14;;;;;;;6.50;3.25;;;;;;;15.57;87.25;100502.94;5198991;28;20098;-74
2022/06/23 01:31:52;;;;;;;6.10;2.28;;;;;;;15.43;88.21;100506.34;5196951;28;20028;-74
2022/06/23 01:34:41;;;;;;;5.90;2.50;;;;;;;15.44;88.28;100515.09;5200646;28;20475;-74
2022/06/23 01:37:25;;;;;;;5.07;2.10;;;;;;;15.09;88.60;100517.03;5196231;28;20025;-74
2022/06/23 01:40:10;;;;;;;6.93;2.20;;;;;;;14.91;90.95;100511.91;5200414;28;20375;-74
2022/06/23 01:42:47;;;;;;;5.40;2.30;;;;;;;14.51;94.70;100519.38;5200202;28;20413;-74
2022/06/23 01:45:33;;;;;;;6.28;2.03;;;;;;;14.54;95.01;100519.19;5197442;28;20394;-74
2022/06/23 01:48:06;;;;;;;5.57;2.40;;;;;;;14.52;94.16;100518.44;5199820;28;20021;-74
2022/06/23 01:50:49;;;;;;;5.30;2.40;;;;;;;14.77;91.24;100517.06;5199642;28;20581;-74
2022/06/23 01:53:26;;;;;;;4.60;2.30;;;;;;;14.64;93.14;100523.06;5197361;28;20108;-74
2022/06/23 01:56:16;;;;;;;6.38;2.13;;;;;;;14.72;92.56;100524.34;5200587;28;20040;-74
2022/06/23 01:58:51;;;;;;;5.25;1.92;;;;;;;15.02;90.85;100515.66;5196191;28;20025;-73
2022/06/23 02:01:37;;;;;;;5.73;2.30;;;;;;;15.17;89.46;100524.50;5200459;28;20083;-74
2022/06/23 02:04:17;;;;;;;4.32;1.80;;;;;;;14.91;89.81;100519.81;5199969;28;20036;-74
2022/06/23 02:07:03;;;;;;;2.97;1.60;;;;;;;14.83;89.15;100517.59;5199606;28;20037;-74
2022/06/23 02:09:44;;;;;;;4.10;1.73;;;;;;;14.76;88.54;100518.00;5198183;28;20434;-75
2022/06/23 02:12:29;;;;;;;3.30;1.52;;;;;;;14.64;87.42;100523.94;5198344;28;20618;-74
2022/06/23 02:15:22;;;;;;;7.07;1.87;;;;;;;14.33;92.24;100515.94;5199770;28;20033;-74
2022/06/23 02:18:06;;;;;;;4.85;1.88;;;;;;;14.19;93.55;100510.53;5196477;28;20117;-72
2022/06/23 02:20:47;;;;;;;8.35;2.20;;;;;;;14.36;93.20;100504.38;5199204;28;20174;-74
2022/06/23 02:23:41;;;;;;;6.50;2.05;;;;;;;14.39;92.08;100504.25;5196746;28;20029;-74
2022/06/23 02:27:01;;;;;;;4.95;1.67;;;;;;;14.16;93.79;100494.06;5194870;28;20029;-71
2022/06/23 02:30:06;;;;;;;6.40;1.98;;;;;;;14.17;94.30;100498.38;5181156;28;20037;-74
2022/06/23 02:32:57;;;;;;;4.90;2.28;;;;;;;14.36;92.88;100500.00;5199024;28;20383;-74
2022/06/23 02:35:49;;;;;;;6.25;2.10;;;;;;;14.12;93.45;100498.56;5197613;28;20038;-74
2022/06/23 02:38:47;;;;;;;5.07;1.98;;;;;;;14.12;94.26;100503.00;5195947;28;20036;-74
2022/06/23 02:41:24;;;;;;;4.47;1.85;;;;;;;14.09;94.98;100500.53;5196246;28;20430;-74
2022/06/23 02:44:21;;;;;;;3.30;2.10;;;;;;;14.30;93.70;100518.72;5200226;28;20511;-74
2022/06/23 02:47:16;;;;;;;5.22;1.92;;;;;;;14.12;95.11;100510.88;5195142;28;20090;-74
2022/06/23 02:50:05;;;;;;;5.07;2.42;;;;;;;13.99;97.94;100522.94;5194901;28;20064;-74
2022/06/23 02:52:35;;;;;;;5.03;2.38;;;;;;;14.09;96.29;100521.56;5198420;28;20044;-74
2022/06/23 02:55:18;;;;;;;5.50;2.40;;;;;;;14.05;94.61;100518.22;5199504;28;20486;-74
2022/06/23 02:57:59;;;;;;;5.85;2.67;;;;;;;13.85;95.35;100531.50;5193984;28;20036;-74
2022/06/23 03:00:56;;;;;;;7.25;2.85;;;;;;;13.67;96.67;100523.69;5199292;28;20025;-73
2022/06/23 03:03:41;;;;;;;4.47;2.22;;;;;;;13.87;95.28;100520.91;5193500;28;20083;-74
2022/06/23 03:06:20;;;;;;;4.70;2.30;;;;;;;13.79;97.63;100523.09;5194456;28;20570;-72
2022/06/23 03:08:57;;;;;;;3.33;2.03;;;;;;;13.75;97.79;100518.91;5199141;28;20316;-74
2022/06/23 03:11:53;;;;;;;5.10;2.50;;;;;;;13.63;98.03;100522.13;5198935;28;20650;-74
2022/06/23 03:14:29;;;;;;;3.53;2.20;;;;;;;13.66;98.16;100527.22;5196810;28;20164;-74
2022/06/23 03:17:09;;;;;;;3.90;2.40;;;;;;;13.66;99.64;100527.22;5198683;28;20040;-74
2022/06/23 03:19:47;;;;;;;4.15;2.42;;;;;;;13.76;97.03;100525.88;5198175;28;20025;-74
2022/06/23 03:22:30;;;;;;;7.32;2.30;;;;;;;13.91;97.70;100527.75;5195882;28;20021;-74
2022/06/23 03:25:06;;;;;;;6.32;2.40;;;;;;;13.86;98.04;100525.34;5199696;28;20747;-74
2022/06/23 03:27:49;;;;;;;7.75;2.47;;;;;;;13.83;98.75;100529.88;5198860;28;20505;-74
2022/06/23 03:30:52;;;;;;;4.43;2.42;;;;;;;13.99;97.16;100533.44;5195794;28;20029;-74
2022/06/23 03:33:32;;;;;;;4.03;2.10;;;;;;;13.91;95.26;100531.19;5196647;28;20037;-74
2022/06/23 03:36:24;;;;;;;5.82;2.30;;;;;;;13.99;96.17;100521.19;5199275;28;20025;-74
2022/06/23 03:41:59;;;;;;;4.78;2.30;;;;;;;13.89;99.32;100521.72;5199560;28;20627;-73
2022/06/23 03:44:34;;;;;;;6.78;2.45;;;;;;;13.84;98.81;100521.06;5202496;28;20528;-74
2022/06/23 03:47:23;;;;;;;;;;;;;;;14.19;95.69;100513.16;5202689;28;20103;-74
2022/06/23 03:50:02;;;;;;;5.38;2.30;;;;;;;14.09;96.79;100522.38;5199505;28;19966;-74
2022/06/23 03:52:56;;;;;;;6.15;2.40;;;;;;;14.30;97.25;100526.63;5201269;28;20048;-74
2022/06/23 03:55:42;;;;;;;5.40;2.28;;;;;;;14.48;95.59;100524.78;5200042;28;20021;-74
2022/06/23 03:58:24;;;;;;;6.90;2.20;;;;;;;14.10;99.52;100542.50;5197932;28;20052;-74
2022/06/23 04:01:16;;;;;;;8.02;2.70;;;;;;;14.28;97.02;100530.25;5202243;28;20419;-74
2022/06/23 04:03:54;;;;;;;5.15;2.20;;;;;;;14.29;98.68;100531.94;5199309;28;20402;-74
2022/06/23 04:06:45;;;;;;;5.82;2.00;;;;;;;14.27;96.97;100529.38;5201656;28;20490;-74
2022/06/23 04:09:23;;;;;;;6.53;1.95;;;;;;;14.72;97.45;100545.41;5198601;28;20029;-71
2022/06/23 04:12:07;;;;;;;5.63;2.20;;;;;;;14.66;95.17;100537.84;5202435;28;20528;-73
2022/06/23 04:14:47;;;;;;;5.32;2.20;;;;;;;14.84;97.40;100545.59;5202270;28;20124;-74
2022/06/23 04:17:32;;;;;;;8.05;2.33;;;;;;;14.96;95.79;100558.09;5197474;28;20060;-74
2022/06/23 04:20:10;;;;;;;6.20;2.50;;;;;;;14.86;97.41;100559.50;5201098;28;20413;-74
2022/06/23 04:22:50;;;;;;;4.22;2.38;;;;;;;14.93;99.59;100568.81;5201551;28;20021;-74
2022/06/23 04:25:24;;;;;;;5.93;2.85;;;;;;;14.96;97.62;100567.78;5201884;28;20079;-74
2022/06/23 04:27:59;;;;;;;6.25;2.70;;;;;;;15.00;98.07;100564.06;5201244;28;20033;-74
2022/06/23 04:30:36;;;;;;;8.17;2.97;;;;;;;15.04;100.00;100566.44;5201072;28;20035;-74
2022/06/23 04:33:17;;;;;;;6.35;3.00;;;;;;;15.32;98.91;100571.09;5201612;28;20779;-74
2022/06/23 04:35:55;;;;;;;8.32;2.83;;;;;;;15.32;100.00;100568.47;5199367;28;20357;-74
2022/06/23 04:38:35;;;;;;;5.65;2.95;;;;;;;15.33;100.00;100568.38;5200738;28;20049;-74
2022/06/23 04:41:22;;;;;;;8.07;2.97;;;;;;;15.76;100.00;100570.31;5201977;28;20032;-74
2022/06/23 04:43:54;;;;;;;;;;;;;;;16.66;97.30;100569.38;5200042;28;20377;-74
2022/06/23 04:46:38;;;;;;;6.95;3.00;;;;;;;16.68;91.04;100571.00;5201286;28;20437;-74
2022/06/23 04:49:22;;;;;;;3.97;2.55;;;;;;;18.76;85.47;100568.69;5200791;28;20399;-75
2022/06/23 04:52:13;;;;;;;8.77;2.30;;;;;;;21.16;71.72;100555.91;5198803;28;20094;-75
2022/06/23 04:54:49;;;;;;;5.15;1.80;;;;;;;23.25;69.34;100546.06;5197307;28;20033;-75
2022/06/23 04:57:28;;;;;;;4.97;2.10;;;;;;;24.31;66.44;100546.06;5200891;28;20068;-75
2022/06/23 05:00:01;;;;;;;4.32;2.00;;;;;;;25.01;61.28;100551.84;5200620;28;20029;-75
2022/06/23 05:02:41;;;;;;;7.50;2.20;;;;;;;23.45;65.67;100558.47;5200624;28;20038;-76
2022/06/23 05:05:18;;;;;;;5.43;2.00;;;;;;;24.97;64.76;100555.81;5196682;28;20025;-75
2022/06/23 05:07:55;;;;;;;5.75;2.22;;;;;;;25.45;59.31;100551.13;5200801;28;20022;-75
2022/06/23 05:10:48;;;;;;;4.65;2.05;;;;;;;25.52;59.82;100562.94;5200914;28;20030;-74
2022/06/23 05:13:23;;;;;;;4.75;1.95;;;;;;;24.67;63.28;100561.38;5197782;28;20029;-75
2022/06/23 05:16:11;;;;;;;4.78;2.10;;;;;;;26.76;58.92;100553.75;5198136;28;20071;-76
2022/06/23 05:18:51;;;;;;;6.95;2.17;;;;;;;28.30;54.55;100552.34;5196229;28;20033;-75
2022/06/23 05:21:29;;;;;;;4.82;2.00;;;;;;;29.73;53.79;100561.16;5200441;28;20044;-75
2022/06/23 05:24:06;;;;;;;5.45;2.08;;;;;;;29.38;54.41;100556.25;5200703;28;20044;-75
2022/06/23 05:26:42;;;;;;;6.43;2.35;;;;;;;27.67;56.37;100559.28;5200591;28;20026;-75
2022/06/23 05:29:26;;;;;;;5.53;2.30;;;;;;;29.05;54.08;100549.28;5196214;28;20017;-74
2022/06/23 05:32:01;;;;;;;5.70;2.45;;;;;;;27.73;59.07;100550.59;5198379;28;20560;-74
2022/06/23 05:34:37;;;;;;;7.50;1.98;;;;;;;27.37;58.83;100548.25;5200265;28;20083;-75
2022/06/23 05:37:18;;;;;;;5.65;2.22;;;;;;;28.49;56.79;100543.97;5199068;28;20217;-75
2022/06/23 05:40:30;;;;;;;4.40;2.20;;;;;;;28.06;57.03;100533.53;5196003;28;20018;-75
2022/06/23 05:43:01;;;;;;;6.57;2.30;;;;;;;26.96;60.53;100543.66;5198910;28;20041;-74
2022/06/23 05:45:43;;;;;;;5.93;2.20;;;;;;;25.70;61.70;100543.19;5198292;28;20064;-74
2022/06/23 05:48:21;;;;;;;4.85;2.10;;;;;;;25.16;64.70;100550.41;5198489;28;20034;-74
2022/06/23 05:50:59;;;;;;;6.68;2.63;;;;;;;23.70;67.97;100547.28;5198879;28;20053;-74
2022/06/23 05:53:59;;;;;;;5.45;2.50;;;;;;;23.27;71.34;100546.75;5199032;28;20044;-75
2022/06/23 05:56:35;;;;;;;5.38;2.50;;;;;;;23.95;69.48;100554.81;5195594;28;20491;-74
2022/06/23 05:59:21;;;;;;;7.53;2.60;;;;;;;22.31;74.88;100561.44;5199365;28;20079;-75
2022/06/23 06:02:10;;;;;;;7.82;2.72;;;;;;;21.73;75.64;100559.25;5195709;28;20029;-74
2022/06/23 06:04:49;;;;;;;6.15;2.60;;;;;;;23.55;71.38;100556.66;5197864;28;20037;-75
2022/06/23 06:07:22;;;;;;;6.93;2.63;;;;;;;24.31;70.28;100546.06;5194388;28;20059;-75
2022/06/23 06:09:54;;;;;;;7.53;2.63;;;;;;;24.10;71.64;100553.41;5197646;28;20052;-74
2022/06/23 06:12:38;;;;;;;7.18;2.60;;;;;;;22.93;72.90;100571.13;5197222;28;20025;-75
2022/06/23 06:15:21;;;;;;;6.95;2.63;;;;;;;24.23;70.55;100553.94;5198818;28;20167;-75
2022/06/23 06:17:59;;;;;;;6.90;2.55;;;;;;;24.88;68.63;100552.19;5196208;28;20109;-75
2022/06/23 06:20:30;;;;;;;4.97;2.50;;;;;;;24.30;70.54;100554.22;5198657;28;20106;-74
2022/06/23 06:23:09;;;;;;;6.47;2.45;;;;;;;24.14;70.85;100560.16;5198870;28;20217;-74
2022/06/23 06:25:44;;;;;;;6.05;2.60;;;;;;;24.61;69.09;100553.94;5199251;28;20029;-73
2022/06/23 06:28:24;;;;;;;6.03;2.53;;;;;;;24.44;69.95;100551.97;5194649;28;20029;-74
2022/06/23 06:31:00;;;;;;;7.15;2.50;;;;;;;24.73;70.47;100548.28;5198533;28;20044;-75
2022/06/23 06:34:09;;;;;;;7.20;2.42;;;;;;;25.45;67.73;100535.91;5198697;28;20029;-75
2022/06/23 06:36:48;;;;;;;4.05;2.00;;;;;;;26.56;65.92;100539.88;5191018;28;20044;-75
2022/06/23 06:39:24;;;;;;;5.80;2.03;;;;;;;26.53;64.14;100535.66;5196751;28;20103;-75
2022/06/23 06:42:08;;;;;;;6.63;2.33;;;;;;;26.01;66.25;100543.75;5198792;28;20029;-75
2022/06/23 06:44:50;;;;;;;4.53;2.22;;;;;;;26.05;65.20;100535.25;5199669;28;20107;-74
2022/06/23 06:47:24;;;;;;;4.00;1.83;;;;;;;26.11;64.54;100534.63;5196201;28;20056;-75
2022/06/23 06:49:58;;;;;;;3.50;1.83;;;;;;;26.18;65.32;100534.84;5198887;28;20487;-75
2022/06/23 06:52:30;;;;;;;5.75;1.90;;;;;;;26.90;64.52;100534.41;5197872;28;20524;-75
2022/06/23 06:55:25;;;;;;;3.88;1.80;;;;;;;28.02;61.92;100534.88;5199706;28;20107;-76
2022/06/23 06:58:03;;;;;;;3.83;2.33;;;;;;;26.67;63.65;100536.94;5197011;28;20108;-73
2022/06/23 07:00:44;;;;;;;8.32;2.28;;;;;;;28.69;60.41;100529.16;5198845;28;20636;-75
2022/06/23 07:03:19;;;;;;;6.30;2.45;;;;;;;28.21;61.15;100534.53;5195676;28;20025;-75
2022/06/23 07:05:53;;;;;;;6.50;2.30;;;;;;;27.03;62.61;100537.50;5199269;28;20099;-75
2022/06/23 07:08:27;;;;;;;4.35;2.40;;;;;;;29.13;60.62;100533.09;5197457;28;20108;-75
2022/06/23 07:11:22;;;;;;;3.72;2.17;;;;;;;27.05;63.72;100554.28;5198764;28;20044;-75
2022/06/23 07:14:07;;;;;;;8.02;2.47;;;;;;;27.26;64.18;100549.38;5196168;28;20025;-73
2022/06/23 07:16:43;;;;;;;6.57;1.95;;;;;;;29.63;58.98;100545.22;5197019;28;20030;-76
2022/06/23 07:19:22;;;;;;;5.68;2.03;;;;;;;30.37;56.38;100537.31;5197363;28;20108;-75
2022/06/23 07:22:02;;;;;;;5.15;2.22;;;;;;;29.92;56.48;100541.84;5198007;28;20502;-76
2022/06/23 07:24:40;;;;;;;5.60;2.05;;;;;;;30.49;56.23;100543.94;5201589;28;20025;-76
2022/06/23 07:27:20;;;;;;;4.55;2.17;;;;;;;29.07;58.50;100541.88;5201786;28;20091;-75
2022/06/23 07:30:03;;;;;;;6.05;2.05;;;;;;;30.68;57.13;100545.31;5199448;28;20032;-76
2022/06/23 07:32:36;;;;;;;6.03;2.20;;;;;;;30.35;57.94;100541.19;5199182;28;20118;-76
2022/06/23 07:35:34;;;;;;;5.38;2.05;;;;;;;28.82;60.74;100546.47;5203201;28;20029;-76
2022/06/23 07:38:29;;;;;;;8.55;2.40;;;;;;;28.43;60.61;100546.47;5201237;28;20026;-74
2022/06/23 07:41:11;;;;;;;6.90;2.08;;;;;;;28.11;61.47;100541.09;5201309;28;20037;-77
2022/06/23 07:44:05;;;;;;;4.85;1.88;;;;;;;29.14;59.29;100540.16;5198485;28;20028;-76
2022/06/23 07:46:38;;;;;;;5.15;1.65;;;;;;;31.14;55.79;100526.94;5200525;28;20239;-73
2022/06/23 07:49:08;;;;;;;6.80;2.00;;;;;;;28.79;59.25;100533.34;5198742;28;20072;-75
2022/06/23 07:51:39;;;;;;;4.50;1.83;;;;;;;29.71;58.11;100533.56;5200542;28;20059;-75
2022/06/23 07:54:16;;;;;;;4.90;2.03;;;;;;;30.61;57.14;100525.47;5201972;28;20029;-76
2022/06/23 07:56:47;;;;;;;4.57;1.70;;;;;;;31.30;56.97;100523.19;5201053;28;20529;-76
2022/06/23 07:59:22;;;;;;;4.70;1.48;;;;;;;30.44;56.61;100526.63;5200464;28;20029;-75
2022/06/23 08:02:14;;;;;;;5.07;1.80;;;;;;;30.58;58.07;100531.25;5201855;28;20037;-75
2022/06/23 08:05:10;;;;;;;5.32;1.90;;;;;;;31.11;54.75;100521.91;5198272;28;20090;-76
2022/06/23 08:07:42;;;;;;;4.63;1.50;;;;;;;32.88;51.91;100531.72;5197407;28;20036;-76
2022/06/23 08:10:26;;;;;;;5.63;1.45;;;;;;;32.53;52.04;100524.56;5201726;28;20022;-75
2022/06/23 08:13:03;;;;;;;5.63;1.80;;;;;;;31.56;52.61;100532.47;5201846;28;20022;-76
2022/06/23 08:19:07;;;;;;;5.00;1.60;;;;;;;31.17;55.34;100534.66;5201110;28;20028;-75
2022/06/23 08:21:43;;;;;;;7.22;1.70;;;;;;;31.65;53.03;100525.97;5189240;28;20506;-76
2022/06/23 08:24:18;;;;;;;7.43;1.40;;;;;;;31.62;53.07;100528.16;5198384;28;20475;-76
2022/06/23 08:27:01;;;;;;;3.58;1.52;;;;;;;32.15;49.06;100525.88;5201579;28;20319;-76
2022/06/23 08:29:51;;;;;;;5.45;1.75;;;;;;;30.62;51.74;100516.34;5201173;28;20032;-76
2022/06/23 08:32:23;;;;;;;5.68;1.50;;;;;;;31.73;50.48;100512.31;5198718;28;20401;-76
2022/06/23 08:34:59;;;;;;;2.97;1.42;;;;;;;31.77;51.01;100515.47;5201610;28;20067;-76
2022/06/23 08:37:37;;;;;;;4.53;1.48;;;;;;;30.96;51.72;100518.34;5199271;28;20518;-75
2022/06/23 08:40:33;;;;;;;4.10;1.35;;;;;;;31.53;49.22;100508.53;5201214;28;20584;-76
2022/06/23 08:43:03;;;;;;;;;;;;;;;32.34;47.56;100511.72;5200343;28;20035;-76
2022/06/23 08:45:44;;;;;;;3.63;1.30;;;;;;;32.35;48.49;100513.38;5201242;28;19913;-76
2022/06/23 08:48:23;;;;;;;4.20;1.17;;;;;;;31.82;47.23;100511.19;5196760;28;20021;-76
2022/06/23 08:51:08;;;;;;;5.30;1.10;;;;;;;32.02;46.37;100505.97;5200895;28;20025;-76
2022/06/23 08:54:02;;;;;;;2.75;1.10;;;;;;;32.58;44.80;100505.84;5200315;28;20519;-76
2022/06/23 08:56:53;;;;;;;2.83;1.10;;;;;;;32.49;47.98;100504.34;5200116;28;20036;-75
2022/06/23 09:00:10;;;;;;;6.70;1.13;;;;;;;32.38;47.60;100502.16;5198709;28;20226;-76
2022/06/23 09:03:03;;;;;;;2.05;1.10;;;;;;;31.75;48.50;100499.47;5187311;28;20068;-75
2022/06/23 09:05:36;;;;;;;4.35;1.23;;;;;;;32.52;46.15;100487.69;5199249;28;20510;-75
2022/06/23 09:08:16;;;;;;;4.80;1.40;;;;;;;32.61;46.88;100491.94;5199131;28;20048;-73
2022/06/23 09:11:13;;;;;;;2.65;1.40;;;;;;;31.84;47.75;100495.59;5198030;28;20107;-75
2022/06/23 09:14:09;;;;;;;2.45;1.13;;;;;;;31.60;47.39;100490.53;5197173;28;20032;-76
2022/06/23 09:17:04;;;;;;;3.63;1.20;;;;;;;32.68;46.95;100492.81;5200283;28;20120;-76
2022/06/23 09:19:46;;;;;;;3.20;1.03;;;;;;;32.45;46.54;100491.38;5199463;28;20486;-75
2022/06/23 09:22:46;;;;;;;2.97;1.20;;;;;;;32.56;46.76;100488.97;5197432;28;20288;-75
2022/06/23 09:25:54;;;;;;;5.88;1.10;;;;;;;32.45;47.65;100492.25;5196367;28;20041;-75
2022/06/23 09:28:33;;;;;;;3.13;1.10;;;;;;;33.37;43.56;100489.09;5198069;28;20026;-75
2022/06/23 09:31:19;;;;;;;1.65;1.00;;;;;;;33.94;46.24;100494.91;5200614;28;20033;-75
2022/06/23 09:34:06;;;;;;;7.53;1.40;;;;;;;32.39;45.96;100489.47;5197811;28;20058;-76
2022/06/23 09:37:04;;;;;;;4.82;1.40;;;;;;;33.37;46.05;100489.94;5200875;28;20075;-76
2022/06/23 09:39:56;;;;;;;3.28;0.95;;;;;;;32.35;48.00;100493.63;5198019;28;20553;-76
2022/06/23 09:42:27;;;;;;;3.65;1.30;;;;;;;33.06;45.36;100486.00;5198846;28;20030;-76
2022/06/23 09:45:26;;;;;;;2.50;1.07;;;;;;;32.18;46.08;100495.75;5200104;28;20045;-76
2022/06/23 09:48:33;;;;;;;3.50;1.20;;;;;;;31.93;46.53;100493.59;5196808;28;20438;-75
2022/06/23 09:51:41;;;;;;;2.85;1.30;;;;;;;32.70;46.21;100496.19;5199438;28;20040;-76
2022/06/23 09:54:29;;;;;;;3.95;1.10;;;;;;;31.76;46.80;100495.72;5195773;28;20100;-76
2022/06/23 09:57:12;;;;;;;2.42;1.13;;;;;;;32.02;45.83;100479.75;5199925;28;20037;-75
2022/06/23 09:59:48;;;;;;;3.97;1.40;;;;;;;31.46;43.48;100488.69;5195710;28;20057;-76
2022/06/23 10:02:34;;;;;;;3.13;1.17;;;;;;;31.92;45.02;100473.00;5199327;28;20033;-75
2022/06/23 10:05:42;;;;;;;4.88;1.15;;;;;;;31.76;46.53;100467.84;5199830;28;20507;-76
2022/06/23 10:08:23;;;;;;;5.18;1.00;;;;;;;31.61;44.39;100486.78;5195036;28;20052;-75
2022/06/23 10:11:03;;;;;;;2.22;0.90;;;;;;;32.03;44.28;100469.78;5197039;28;20048;-75
2022/06/23 10:13:51;;;;;;;3.47;1.10;;;;;;;31.63;45.79;100476.63;5200066;28;20434;-76
2022/06/23 10:16:40;;;;;;;2.80;1.20;;;;;;;31.30;46.02;100458.34;5196983;28;20053;-74
2022/06/23 10:19:19;;;;;;;4.45;1.38;;;;;;;30.78;46.60;100464.91;5199058;28;20149;-75
2022/06/23 10:22:15;;;;;;;3.95;1.30;;;;;;;30.37;47.04;100477.94;5196451;28;20527;-75
2022/06/23 10:24:45;;;;;;;3.42;1.23;;;;;;;30.17;47.21;100465.13;5196464;28;20045;-75
2022/06/23 10:27:36;;;;;;;3.23;1.30;;;;;;;30.19;46.98;100468.50;5199380;28;20029;-75
2022/06/23 10:30:15;;;;;;;5.22;1.13;;;;;;;30.43;48.71;100462.88;5199933;28;20397;-75
2022/06/23 10:33:10;;;;;;;3.38;1.20;;;;;;;30.32;49.38;100463.31;5196071;28;20505;-75
2022/06/23 10:36:16;;;;;;;2.95;1.20;;;;;;;30.20;45.80;100462.06;5199842;28;20445;-75
2022/06/23 10:39:11;;;;;;;4.72;1.33;;;;;;;30.34;47.88;100458.56;5198850;28;20483;-75
2022/06/23 10:41:53;;;;;;;2.90;1.30;;;;;;;29.99;48.53;100462.75;5199152;28;20483;-75
2022/06/23 10:44:36;;;;;;;4.43;1.30;;;;;;;29.90;48.94;100453.03;5199331;28;20025;-75
2022/06/23 10:47:12;;;;;;;2.30;1.20;;;;;;;29.90;47.41;100452.22;5199176;28;20137;-74
2022/06/23 10:49:49;;;;;;;3.38;1.50;;;;;;;29.98;47.64;100449.44;5194062;28;20025;-75
2022/06/23 10:52:44;;;;;;;4.28;1.25;;;;;;;29.79;48.76;100447.22;5200218;28;20538;-75
2022/06/23 10:55:24;;;;;;;3.00;1.08;;;;;;;30.16;48.34;100444.59;5199426;28;20029;-75
2022/06/23 10:58:26;;;;;;;2.50;1.10;;;;;;;29.82;49.69;100436.94;5203785;28;20573;-75
2022/06/23 11:01:08;;;;;;;2.40;1.08;;;;;;;30.03;47.56;100437.13;5201635;28;20386;-75
2022/06/23 11:03:52;;;;;;;2.28;0.90;;;;;;;29.62;47.02;100443.81;5203512;28;20032;-75
2022/06/23 11:06:40;;;;;;;2.60;1.08;;;;;;;29.66;48.23;100436.19;5200273;28;20052;-75
2022/06/23 11:09:41;;;;;;;3.75;1.10;;;;;;;30.05;47.98;100432.38;5201828;28;20482;-73
2022/06/23 11:12:25;;;;;;;3.67;1.25;;;;;;;29.85;50.29;100435.72;5192849;28;20536;-73
2022/06/23 11:15:05;;;;;;;2.67;1.20;;;;;;;29.68;47.68;100420.69;5199894;28;20095;-74
2022/06/23 11:18:06;;;;;;;4.10;1.20;;;;;;;29.80;48.58;100430.03;5202161;28;20136;-75
2022/06/23 11:21:14;;;;;;;3.83;1.08;;;;;;;29.56;47.38;100432.91;5202266;28;20033;-75
2022/06/23 11:24:00;;;;;;;3.13;1.05;;;;;;;29.56;46.48;100422.16;5199597;28;20064;-74
2022/06/23 11:27:28;;;;;;;2.42;1.00;;;;;;;29.36;47.27;100412.78;5202266;28;20418;-75
2022/06/23 11:30:10;;;;;;;2.08;1.10;;;;;;;29.23;46.45;100415.25;5190071;28;20045;-75
2022/06/23 11:33:05;;;;;;;3.03;1.00;;;;;;;29.02;47.02;100409.63;5202778;28;20017;-74
2022/06/23 11:36:03;;;;;;;10.50;1.10;;;;;;;29.30;47.86;100406.28;5201589;28;20029;-75
2022/06/23 11:39:09;;;;;;;1.63;0.98;;;;;;;29.57;46.86;100408.47;5203671;28;20018;-75
2022/06/23 11:42:08;;;;;;;2.53;0.95;;;;;;;29.55;47.12;100398.91;5200091;28;20063;-75
2022/06/23 11:44:53;;;;;;;2.78;0.93;;;;;;;29.62;47.45;100391.78;5202359;28;20061;-75
2022/06/23 11:47:58;;;;;;;1.83;0.95;;;;;;;29.49;49.71;100391.53;5199785;28;20106;-74
2022/06/23 11:50:38;;;;;;;4.28;1.30;;;;;;;29.29;47.03;100395.69;5201706;28;20033;-75
2022/06/23 11:53:11;;;;;;;2.65;1.20;;;;;;;29.29;46.01;100395.69;5202287;28;20113;-75
2022/06/23 11:55:48;;;;;;;1.85;1.10;;;;;;;29.28;47.61;100394.00;5202707;28;20073;-75
2022/06/23 11:58:34;;;;;;;3.20;1.10;;;;;;;29.62;45.70;100381.84;5198096;28;20443;-75
2022/06/23 12:01:20;;;;;;;5.93;1.13;;;;;;;29.59;47.67;100384.06;5202433;28;20124;-74
2022/06/23 12:04:06;;;;;;;6.15;1.20;;;;;;;29.34;47.13;100386.06;5198454;28;20483;-75
2022/06/23 12:06:48;;;;;;;2.00;0.90;;;;;;;29.48;45.76;100373.69;5200027;28;20039;-74
2022/06/23 12:09:45;;;;;;;2.33;1.17;;;;;;;29.64;46.97;100376.25;5199170;28;20028;-75
2022/06/23 12:12:16;;;;;;;4.13;1.10;;;;;;;29.66;47.57;100372.38;5198646;28;20072;-74
2022/06/23 12:14:47;;;;;;;6.43;1.42;;;;;;;29.61;45.90;100372.06;5200918;28;20021;-75
2022/06/23 12:17:26;;;;;;;3.90;1.10;;;;;;;29.76;47.50;100364.84;5201266;28;20021;-75
2022/06/23 12:20:06;;;;;;;3.88;1.10;;;;;;;29.90;48.08;100371.34;5200428;28;20040;-71
2022/06/23 12:22:53;;;;;;;2.20;1.00;;;;;;;29.71;46.89;100367.28;5201236;28;20075;-75
2022/06/23 12:25:45;;;;;;;2.22;0.98;;;;;;;29.49;46.69;100364.59;5199227;28;20029;-75
2022/06/23 12:28:26;;;;;;;3.85;0.93;;;;;;;29.49;45.82;100353.81;5197681;28;20109;-75
2022/06/23 12:31:18;;;;;;;2.03;1.15;;;;;;;29.48;46.85;100354.81;5200657;28;20643;-75
2022/06/23 12:34:19;;;;;;;3.42;1.15;;;;;;;29.62;45.56;100340.56;5201782;23;20038;-74
2022/06/23 12:37:02;;;;;;;2.63;1.10;;;;;;;29.41;47.46;100353.84;5186546;28;20126;-74
2022/06/23 12:39:44;;;;;;;8.13;1.20;;;;;;;29.28;46.03;100350.91;5182662;28;20041;-73
2022/06/23 12:42:28;;;;;;;2.00;1.00;;;;;;;29.44;46.62;100338.16;5157180;28;20018;-74
2022/06/23 12:45:29;;;;;;;2.42;1.10;;;;;;;29.10;45.44;100342.28;5140687;28;20026;-73
2022/06/23 12:48:05;;;;;;;1.83;0.93;;;;;;;29.61;47.33;100336.19;5138628;28;20030;-74
2022/06/23 12:50:58;;;;;;;1.90;1.00;;;;;;;29.56;47.02;100331.34;5150799;28;20033;-73
2022/06/23 12:53:45;;;;;;;2.88;1.20;;;;;;;29.58;46.60;100332.00;5142691;28;20026;-73